sensor_id;sensor_type;location;lat;lon;timestamp;P1;durP1;ratioP1;P2;durP2;ratioP2
66739;SDS011;53653;52.188;8.602;2022-08-27T00:00:11;15.87;;;6.63;;
66739;SDS011;53653;52.188;8.602;2022-08-27T00:02:40;18.10;;;6.97;;
66739;SDS011;53653;52.188;8.602;2022-08-27T00:05:07;14.23;;;6.37;;
66739;SDS011;53653;52.188;8.602;2022-08-27T00:07:38;14.60;;;6.93;;
66739;SDS011;53653;52.188;8.602;2022-08-27T00:10:05;18.00;;;6.88;;
66739;SDS011;53653;52.188;8.602;2022-08-27T00:12:33;16.17;;;7.20;;
66739;SDS011;53653;52.188;8.602;2022-08-27T00:14:59;14.90;;;6.32;;
66739;SDS011;53653;52.188;8.602;2022-08-27T00:17:25;13.97;;;6.83;;
66739;SDS011;53653;52.188;8.602;2022-08-27T00:19:51;17.08;;;6.60;;
66739;SDS011;53653;52.188;8.602;2022-08-27T00:22:17;17.33;;;7.18;;
66739;SDS011;53653;52.188;8.602;2022-08-27T00:24:42;15.83;;;6.80;;
66739;SDS011;53653;52.188;8.602;2022-08-27T00:27:07;19.33;;;7.03;;
66739;SDS011;53653;52.188;8.602;2022-08-27T00:29:33;17.17;;;7.63;;
66739;SDS011;53653;52.188;8.602;2022-08-27T00:31:58;20.33;;;7.37;;
66739;SDS011;53653;52.188;8.602;2022-08-27T00:34:24;17.33;;;7.70;;
66739;SDS011;53653;52.188;8.602;2022-08-27T00:36:50;15.93;;;7.47;;
66739;SDS011;53653;52.188;8.602;2022-08-27T00:39:17;13.68;;;6.70;;
66739;SDS011;53653;52.188;8.602;2022-08-27T00:41:43;18.20;;;7.47;;
66739;SDS011;53653;52.188;8.602;2022-08-27T00:44:09;18.90;;;7.22;;
66739;SDS011;53653;52.188;8.602;2022-08-27T00:46:38;18.23;;;7.22;;
66739;SDS011;53653;52.188;8.602;2022-08-27T00:49:08;16.40;;;6.40;;
66739;SDS011;53653;52.188;8.602;2022-08-27T00:51:34;16.77;;;7.70;;
66739;SDS011;53653;52.188;8.602;2022-08-27T00:54:01;15.68;;;7.38;;
66739;SDS011;53653;52.188;8.602;2022-08-27T00:56:28;19.50;;;8.18;;
66739;SDS011;53653;52.188;8.602;2022-08-27T00:58:58;18.70;;;7.95;;
66739;SDS011;53653;52.188;8.602;2022-08-27T01:01:27;19.57;;;8.03;;
66739;SDS011;53653;52.188;8.602;2022-08-27T01:03:55;17.02;;;8.43;;
66739;SDS011;53653;52.188;8.602;2022-08-27T01:06:24;25.00;;;8.52;;
66739;SDS011;53653;52.188;8.602;2022-08-27T01:08:56;17.88;;;8.63;;
66739;SDS011;53653;52.188;8.602;2022-08-27T01:11:25;16.20;;;8.13;;
66739;SDS011;53653;52.188;8.602;2022-08-27T01:13:51;22.10;;;8.23;;
66739;SDS011;53653;52.188;8.602;2022-08-27T01:16:19;15.15;;;8.43;;
66739;SDS011;53653;52.188;8.602;2022-08-27T01:18:47;22.08;;;8.40;;
66739;SDS011;53653;52.188;8.602;2022-08-27T01:24:07;19.58;;;8.25;;
66739;SDS011;53653;52.188;8.602;2022-08-27T01:26:55;21.88;;;8.77;;
66739;SDS011;53653;52.188;8.602;2022-08-27T01:29:23;24.13;;;8.05;;
66739;SDS011;53653;52.188;8.602;2022-08-27T01:31:48;18.13;;;8.03;;
66739;SDS011;53653;52.188;8.602;2022-08-27T01:34:13;17.80;;;6.93;;
66739;SDS011;53653;52.188;8.602;2022-08-27T01:36:39;15.90;;;7.13;;
66739;SDS011;53653;52.188;8.602;2022-08-27T01:39:05;19.17;;;7.00;;
66739;SDS011;53653;52.188;8.602;2022-08-27T01:41:31;15.13;;;6.57;;
66739;SDS011;53653;52.188;8.602;2022-08-27T01:43:56;15.97;;;6.10;;
66739;SDS011;53653;52.188;8.602;2022-08-27T01:46:22;14.70;;;5.60;;
66739;SDS011;53653;52.188;8.602;2022-08-27T01:48:50;17.80;;;5.10;;
66739;SDS011;53653;52.188;8.602;2022-08-27T01:51:16;17.15;;;5.07;;
66739;SDS011;53653;52.188;8.602;2022-08-27T01:53:41;15.73;;;5.03;;
66739;SDS011;53653;52.188;8.602;2022-08-27T01:56:07;15.27;;;4.55;;
66739;SDS011;53653;52.188;8.602;2022-08-27T01:58:33;13.20;;;4.37;;
66739;SDS011;53653;52.188;8.602;2022-08-27T02:01:03;12.23;;;4.43;;
66739;SDS011;53653;52.188;8.602;2022-08-27T02:03:31;12.68;;;3.97;;
66739;SDS011;53653;52.188;8.602;2022-08-27T02:05:58;9.95;;;4.03;;
66739;SDS011;53653;52.188;8.602;2022-08-27T02:08:28;13.10;;;4.20;;
66739;SDS011;53653;52.188;8.602;2022-08-27T02:10:53;14.20;;;4.30;;
66739;SDS011;53653;52.188;8.602;2022-08-27T02:13:19;15.47;;;4.27;;
66739;SDS011;53653;52.188;8.602;2022-08-27T02:15:44;9.73;;;3.67;;
66739;SDS011;53653;52.188;8.602;2022-08-27T02:18:10;10.88;;;4.60;;
66739;SDS011;53653;52.188;8.602;2022-08-27T02:20:37;11.82;;;3.90;;
66739;SDS011;53653;52.188;8.602;2022-08-27T02:23:03;13.70;;;3.90;;
66739;SDS011;53653;52.188;8.602;2022-08-27T02:25:30;11.02;;;3.72;;
66739;SDS011;53653;52.188;8.602;2022-08-27T02:27:56;11.23;;;3.78;;
66739;SDS011;53653;52.188;8.602;2022-08-27T02:30:24;14.15;;;4.05;;
66739;SDS011;53653;52.188;8.602;2022-08-27T02:32:50;12.02;;;3.45;;
66739;SDS011;53653;52.188;8.602;2022-08-27T02:35:17;12.70;;;3.50;;
66739;SDS011;53653;52.188;8.602;2022-08-27T02:37:44;13.23;;;3.47;;
66739;SDS011;53653;52.188;8.602;2022-08-27T02:40:11;9.68;;;2.97;;
66739;SDS011;53653;52.188;8.602;2022-08-27T02:42:41;13.20;;;2.92;;
66739;SDS011;53653;52.188;8.602;2022-08-27T02:45:07;10.57;;;3.65;;
66739;SDS011;53653;52.188;8.602;2022-08-27T02:47:33;14.07;;;3.10;;
66739;SDS011;53653;52.188;8.602;2022-08-27T02:49:59;10.60;;;3.30;;
66739;SDS011;53653;52.188;8.602;2022-08-27T02:52:25;9.30;;;2.20;;
66739;SDS011;53653;52.188;8.602;2022-08-27T02:54:52;8.97;;;2.20;;
66739;SDS011;53653;52.188;8.602;2022-08-27T02:57:17;8.93;;;2.20;;
66739;SDS011;53653;52.188;8.602;2022-08-27T02:59:42;9.50;;;2.50;;
66739;SDS011;53653;52.188;8.602;2022-08-27T03:02:09;11.20;;;2.30;;
66739;SDS011;53653;52.188;8.602;2022-08-27T03:04:35;10.05;;;2.20;;
66739;SDS011;53653;52.188;8.602;2022-08-27T03:07:01;9.97;;;2.40;;
66739;SDS011;53653;52.188;8.602;2022-08-27T03:09:27;10.98;;;2.70;;
66739;SDS011;53653;52.188;8.602;2022-08-27T03:11:52;11.23;;;2.70;;
66739;SDS011;53653;52.188;8.602;2022-08-27T03:14:19;8.97;;;2.23;;
66739;SDS011;53653;52.188;8.602;2022-08-27T03:16:44;7.80;;;2.40;;
66739;SDS011;53653;52.188;8.602;2022-08-27T03:19:10;10.17;;;2.50;;
66739;SDS011;53653;52.188;8.602;2022-08-27T03:21:36;9.50;;;2.40;;
66739;SDS011;53653;52.188;8.602;2022-08-27T03:24:02;10.10;;;2.43;;
66739;SDS011;53653;52.188;8.602;2022-08-27T03:26:29;11.65;;;2.28;;
66739;SDS011;53653;52.188;8.602;2022-08-27T03:28:56;9.23;;;2.42;;
66739;SDS011;53653;52.188;8.602;2022-08-27T03:31:23;9.80;;;1.80;;
66739;SDS011;53653;52.188;8.602;2022-08-27T03:33:53;7.15;;;1.77;;
66739;SDS011;53653;52.188;8.602;2022-08-27T03:36:24;13.55;;;2.90;;
66739;SDS011;53653;52.188;8.602;2022-08-27T03:38:51;11.50;;;2.40;;
66739;SDS011;53653;52.188;8.602;2022-08-27T03:41:17;9.63;;;2.17;;
66739;SDS011;53653;52.188;8.602;2022-08-27T03:43:43;14.45;;;2.42;;
66739;SDS011;53653;52.188;8.602;2022-08-27T03:46:09;8.82;;;2.00;;
66739;SDS011;53653;52.188;8.602;2022-08-27T03:48:34;11.17;;;2.40;;
66739;SDS011;53653;52.188;8.602;2022-08-27T03:51:07;7.88;;;1.90;;
66739;SDS011;53653;52.188;8.602;2022-08-27T03:53:35;10.00;;;2.20;;
66739;SDS011;53653;52.188;8.602;2022-08-27T03:56:03;10.10;;;2.00;;
66739;SDS011;53653;52.188;8.602;2022-08-27T03:58:29;6.28;;;1.52;;
66739;SDS011;53653;52.188;8.602;2022-08-27T04:00:54;7.17;;;1.60;;
66739;SDS011;53653;52.188;8.602;2022-08-27T04:03:20;13.05;;;2.10;;
66739;SDS011;53653;52.188;8.602;2022-08-27T04:05:50;9.80;;;1.67;;
66739;SDS011;53653;52.188;8.602;2022-08-27T04:08:20;10.63;;;2.00;;
66739;SDS011;53653;52.188;8.602;2022-08-27T04:10:47;8.97;;;1.80;;
66739;SDS011;53653;52.188;8.602;2022-08-27T04:13:13;9.80;;;1.90;;
66739;SDS011;53653;52.188;8.602;2022-08-27T04:15:45;8.57;;;2.10;;
66739;SDS011;53653;52.188;8.602;2022-08-27T04:18:13;11.20;;;2.23;;
66739;SDS011;53653;52.188;8.602;2022-08-27T04:20:45;8.02;;;2.00;;
66739;SDS011;53653;52.188;8.602;2022-08-27T04:23:12;7.10;;;1.42;;
66739;SDS011;53653;52.188;8.602;2022-08-27T04:25:42;7.45;;;1.98;;
66739;SDS011;53653;52.188;8.602;2022-08-27T04:28:09;10.77;;;1.83;;
66739;SDS011;53653;52.188;8.602;2022-08-27T04:30:42;8.60;;;1.70;;
66739;SDS011;53653;52.188;8.602;2022-08-27T04:33:13;10.48;;;2.30;;
66739;SDS011;53653;52.188;8.602;2022-08-27T04:35:39;8.43;;;1.75;;
66739;SDS011;53653;52.188;8.602;2022-08-27T04:38:05;9.68;;;2.13;;
66739;SDS011;53653;52.188;8.602;2022-08-27T04:40:31;9.97;;;2.10;;
66739;SDS011;53653;52.188;8.602;2022-08-27T04:43:15;10.68;;;2.20;;
66739;SDS011;53653;52.188;8.602;2022-08-27T04:45:44;9.00;;;1.90;;
66739;SDS011;53653;52.188;8.602;2022-08-27T04:48:11;5.18;;;1.65;;
66739;SDS011;53653;52.188;8.602;2022-08-27T04:50:42;8.98;;;2.15;;
66739;SDS011;53653;52.188;8.602;2022-08-27T04:53:09;11.05;;;1.90;;
66739;SDS011;53653;52.188;8.602;2022-08-27T04:55:40;9.13;;;1.87;;
66739;SDS011;53653;52.188;8.602;2022-08-27T04:58:07;10.38;;;2.00;;
66739;SDS011;53653;52.188;8.602;2022-08-27T05:00:32;8.55;;;1.80;;
66739;SDS011;53653;52.188;8.602;2022-08-27T05:02:58;8.17;;;1.77;;
66739;SDS011;53653;52.188;8.602;2022-08-27T05:05:25;6.57;;;1.90;;
66739;SDS011;53653;52.188;8.602;2022-08-27T05:07:52;11.63;;;2.38;;
66739;SDS011;53653;52.188;8.602;2022-08-27T05:10:17;9.90;;;1.93;;
66739;SDS011;53653;52.188;8.602;2022-08-27T05:12:43;7.88;;;2.10;;
66739;SDS011;53653;52.188;8.602;2022-08-27T05:15:09;14.93;;;2.10;;
66739;SDS011;53653;52.188;8.602;2022-08-27T05:17:35;5.55;;;1.50;;
66739;SDS011;53653;52.188;8.602;2022-08-27T05:20:00;11.13;;;1.80;;
66739;SDS011;53653;52.188;8.602;2022-08-27T05:22:25;11.13;;;2.03;;
66739;SDS011;53653;52.188;8.602;2022-08-27T05:24:51;8.48;;;1.95;;
66739;SDS011;53653;52.188;8.602;2022-08-27T05:27:17;8.10;;;1.77;;
66739;SDS011;53653;52.188;8.602;2022-08-27T05:29:42;11.55;;;2.22;;
66739;SDS011;53653;52.188;8.602;2022-08-27T05:32:07;11.50;;;1.67;;
66739;SDS011;53653;52.188;8.602;2022-08-27T05:34:33;8.30;;;1.80;;
66739;SDS011;53653;52.188;8.602;2022-08-27T05:36:59;7.88;;;1.65;;
66739;SDS011;53653;52.188;8.602;2022-08-27T05:39:25;9.07;;;1.73;;
66739;SDS011;53653;52.188;8.602;2022-08-27T05:41:54;9.10;;;2.10;;
66739;SDS011;53653;52.188;8.602;2022-08-27T05:44:21;8.77;;;1.48;;
66739;SDS011;53653;52.188;8.602;2022-08-27T05:46:46;7.47;;;1.90;;
66739;SDS011;53653;52.188;8.602;2022-08-27T05:49:12;9.97;;;1.87;;
66739;SDS011;53653;52.188;8.602;2022-08-27T05:51:38;9.55;;;1.83;;
66739;SDS011;53653;52.188;8.602;2022-08-27T05:54:08;8.15;;;1.80;;
66739;SDS011;53653;52.188;8.602;2022-08-27T05:56:40;6.85;;;1.58;;
66739;SDS011;53653;52.188;8.602;2022-08-27T05:59:06;9.57;;;1.87;;
66739;SDS011;53653;52.188;8.602;2022-08-27T06:01:50;5.85;;;1.38;;
66739;SDS011;53653;52.188;8.602;2022-08-27T06:04:18;6.07;;;1.58;;
66739;SDS011;53653;52.188;8.602;2022-08-27T06:06:45;9.48;;;1.98;;
66739;SDS011;53653;52.188;8.602;2022-08-27T06:09:12;7.00;;;1.80;;
66739;SDS011;53653;52.188;8.602;2022-08-27T06:11:40;8.33;;;1.83;;
66739;SDS011;53653;52.188;8.602;2022-08-27T06:14:06;10.50;;;2.38;;
66739;SDS011;53653;52.188;8.602;2022-08-27T06:16:33;7.85;;;1.88;;
66739;SDS011;53653;52.188;8.602;2022-08-27T06:19:02;8.93;;;1.73;;
66739;SDS011;53653;52.188;8.602;2022-08-27T06:21:29;9.07;;;1.83;;
66739;SDS011;53653;52.188;8.602;2022-08-27T06:23:54;8.40;;;1.90;;
66739;SDS011;53653;52.188;8.602;2022-08-27T06:26:20;10.68;;;2.00;;
66739;SDS011;53653;52.188;8.602;2022-08-27T06:28:47;8.47;;;1.70;;
66739;SDS011;53653;52.188;8.602;2022-08-27T06:31:17;7.68;;;1.70;;
66739;SDS011;53653;52.188;8.602;2022-08-27T06:33:46;9.23;;;1.50;;
66739;SDS011;53653;52.188;8.602;2022-08-27T06:36:14;8.18;;;1.70;;
66739;SDS011;53653;52.188;8.602;2022-08-27T06:38:41;7.20;;;1.73;;
66739;SDS011;53653;52.188;8.602;2022-08-27T06:41:10;7.37;;;1.57;;
66739;SDS011;53653;52.188;8.602;2022-08-27T06:43:38;8.65;;;1.60;;
66739;SDS011;53653;52.188;8.602;2022-08-27T06:46:06;10.85;;;1.95;;
66739;SDS011;53653;52.188;8.602;2022-08-27T06:48:33;10.15;;;1.92;;
66739;SDS011;53653;52.188;8.602;2022-08-27T06:50:59;11.07;;;1.80;;
66739;SDS011;53653;52.188;8.602;2022-08-27T06:53:31;5.88;;;1.60;;
66739;SDS011;53653;52.188;8.602;2022-08-27T06:55:57;7.70;;;2.13;;
66739;SDS011;53653;52.188;8.602;2022-08-27T06:58:23;8.10;;;1.67;;
66739;SDS011;53653;52.188;8.602;2022-08-27T07:00:48;7.50;;;1.53;;
66739;SDS011;53653;52.188;8.602;2022-08-27T07:03:15;6.70;;;1.63;;
66739;SDS011;53653;52.188;8.602;2022-08-27T07:05:40;10.82;;;1.90;;
66739;SDS011;53653;52.188;8.602;2022-08-27T07:08:06;11.07;;;1.73;;
66739;SDS011;53653;52.188;8.602;2022-08-27T07:10:33;10.93;;;2.25;;
66739;SDS011;53653;52.188;8.602;2022-08-27T07:12:58;9.57;;;2.00;;
66739;SDS011;53653;52.188;8.602;2022-08-27T07:15:24;10.38;;;1.70;;
66739;SDS011;53653;52.188;8.602;2022-08-27T07:17:50;8.43;;;1.80;;
66739;SDS011;53653;52.188;8.602;2022-08-27T07:20:16;8.50;;;2.00;;
66739;SDS011;53653;52.188;8.602;2022-08-27T07:22:43;14.98;;;2.20;;
66739;SDS011;53653;52.188;8.602;2022-08-27T07:25:11;4.85;;;1.67;;
66739;SDS011;53653;52.188;8.602;2022-08-27T07:27:39;9.13;;;2.10;;
66739;SDS011;53653;52.188;8.602;2022-08-27T07:30:06;10.98;;;1.88;;
66739;SDS011;53653;52.188;8.602;2022-08-27T07:32:35;7.47;;;1.98;;
66739;SDS011;53653;52.188;8.602;2022-08-27T07:35:00;8.90;;;2.20;;
66739;SDS011;53653;52.188;8.602;2022-08-27T07:37:27;11.88;;;1.88;;
66739;SDS011;53653;52.188;8.602;2022-08-27T07:39:52;8.23;;;1.93;;
66739;SDS011;53653;52.188;8.602;2022-08-27T07:42:18;7.80;;;1.75;;
66739;SDS011;53653;52.188;8.602;2022-08-27T07:45:02;8.60;;;1.92;;
66739;SDS011;53653;52.188;8.602;2022-08-27T07:47:27;8.50;;;1.67;;
66739;SDS011;53653;52.188;8.602;2022-08-27T07:49:53;6.37;;;1.60;;
66739;SDS011;53653;52.188;8.602;2022-08-27T07:52:18;9.88;;;1.85;;
66739;SDS011;53653;52.188;8.602;2022-08-27T07:54:44;9.53;;;1.80;;
66739;SDS011;53653;52.188;8.602;2022-08-27T07:57:10;9.43;;;2.00;;
66739;SDS011;53653;52.188;8.602;2022-08-27T07:59:35;8.07;;;1.77;;
66739;SDS011;53653;52.188;8.602;2022-08-27T08:02:02;9.00;;;1.95;;
66739;SDS011;53653;52.188;8.602;2022-08-27T08:04:28;8.63;;;1.70;;
66739;SDS011;53653;52.188;8.602;2022-08-27T08:06:53;9.53;;;2.10;;
66739;SDS011;53653;52.188;8.602;2022-08-27T08:09:20;7.80;;;1.80;;
66739;SDS011;53653;52.188;8.602;2022-08-27T08:11:48;8.00;;;1.80;;
66739;SDS011;53653;52.188;8.602;2022-08-27T08:14:15;6.33;;;1.63;;
66739;SDS011;53653;52.188;8.602;2022-08-27T08:16:41;8.98;;;1.95;;
66739;SDS011;53653;52.188;8.602;2022-08-27T08:19:07;8.40;;;1.87;;
66739;SDS011;53653;52.188;8.602;2022-08-27T08:21:33;10.13;;;2.10;;
66739;SDS011;53653;52.188;8.602;2022-08-27T08:23:59;7.88;;;1.90;;
66739;SDS011;53653;52.188;8.602;2022-08-27T08:26:26;10.73;;;2.65;;
66739;SDS011;53653;52.188;8.602;2022-08-27T08:28:52;12.88;;;2.65;;
66739;SDS011;53653;52.188;8.602;2022-08-27T08:31:18;14.80;;;2.97;;
66739;SDS011;53653;52.188;8.602;2022-08-27T08:33:43;13.15;;;2.83;;
66739;SDS011;53653;52.188;8.602;2022-08-27T08:36:12;8.10;;;2.55;;
66739;SDS011;53653;52.188;8.602;2022-08-27T08:38:39;10.27;;;2.30;;
66739;SDS011;53653;52.188;8.602;2022-08-27T08:41:06;11.38;;;2.60;;
66739;SDS011;53653;52.188;8.602;2022-08-27T08:43:49;12.95;;;2.88;;
66739;SDS011;53653;52.188;8.602;2022-08-27T08:46:36;11.38;;;2.95;;
66739;SDS011;53653;52.188;8.602;2022-08-27T08:49:48;11.23;;;2.73;;
66739;SDS011;53653;52.188;8.602;2022-08-27T08:58:12;10.30;;;3.05;;
66739;SDS011;53653;52.188;8.602;2022-08-27T09:00:57;11.95;;;3.00;;
66739;SDS011;53653;52.188;8.602;2022-08-27T09:03:24;11.43;;;2.80;;
66739;SDS011;53653;52.188;8.602;2022-08-27T09:06:12;10.98;;;3.25;;
66739;SDS011;53653;52.188;8.602;2022-08-27T09:08:43;9.80;;;2.80;;
66739;SDS011;53653;52.188;8.602;2022-08-27T09:11:13;9.13;;;3.00;;
66739;SDS011;53653;52.188;8.602;2022-08-27T09:13:57;9.23;;;2.75;;
66739;SDS011;53653;52.188;8.602;2022-08-27T09:16:29;11.95;;;2.78;;
66739;SDS011;53653;52.188;8.602;2022-08-27T09:18:56;10.50;;;2.80;;
66739;SDS011;53653;52.188;8.602;2022-08-27T09:21:37;11.27;;;3.10;;
66739;SDS011;53653;52.188;8.602;2022-08-27T09:27:10;10.35;;;3.33;;
66739;SDS011;53653;52.188;8.602;2022-08-27T09:29:45;8.52;;;3.13;;
66739;SDS011;53653;52.188;8.602;2022-08-27T09:32:12;11.57;;;3.85;;
66739;SDS011;53653;52.188;8.602;2022-08-27T09:34:40;12.53;;;3.30;;
66739;SDS011;53653;52.188;8.602;2022-08-27T09:37:09;9.90;;;3.80;;
66739;SDS011;53653;52.188;8.602;2022-08-27T09:39:41;7.65;;;3.90;;
66739;SDS011;53653;52.188;8.602;2022-08-27T09:42:08;9.85;;;3.47;;
66739;SDS011;53653;52.188;8.602;2022-08-27T09:44:58;9.70;;;3.20;;
66739;SDS011;53653;52.188;8.602;2022-08-27T09:47:24;9.07;;;3.37;;
66739;SDS011;53653;52.188;8.602;2022-08-27T09:50:01;10.70;;;3.28;;
66739;SDS011;53653;52.188;8.602;2022-08-27T09:52:33;10.63;;;3.28;;
66739;SDS011;53653;52.188;8.602;2022-08-27T09:55:01;10.75;;;3.47;;
66739;SDS011;53653;52.188;8.602;2022-08-27T09:57:35;10.63;;;3.47;;
66739;SDS011;53653;52.188;8.602;2022-08-27T10:00:08;13.18;;;4.00;;
66739;SDS011;53653;52.188;8.602;2022-08-27T10:02:48;12.93;;;4.30;;
66739;SDS011;53653;52.188;8.602;2022-08-27T10:05:23;10.52;;;3.55;;
66739;SDS011;53653;52.188;8.602;2022-08-27T10:07:58;11.27;;;3.57;;
66739;SDS011;53653;52.188;8.602;2022-08-27T10:10:37;11.77;;;3.78;;
66739;SDS011;53653;52.188;8.602;2022-08-27T10:16:20;16.05;;;4.20;;
66739;SDS011;53653;52.188;8.602;2022-08-27T10:18:55;11.95;;;4.30;;
66739;SDS011;53653;52.188;8.602;2022-08-27T10:30:37;11.20;;;3.88;;
66739;SDS011;53653;52.188;8.602;2022-08-27T10:40:58;14.37;;;4.07;;
66739;SDS011;53653;52.188;8.602;2022-08-27T10:48:54;12.27;;;4.30;;
66739;SDS011;53653;52.188;8.602;2022-08-27T10:51:30;10.55;;;4.80;;
66739;SDS011;53653;52.188;8.602;2022-08-27T10:56:45;15.07;;;4.55;;
66739;SDS011;53653;52.188;8.602;2022-08-27T11:05:15;11.80;;;4.43;;
66739;SDS011;53653;52.188;8.602;2022-08-27T11:07:48;12.83;;;4.47;;
66739;SDS011;53653;52.188;8.602;2022-08-27T11:10:23;14.50;;;4.03;;
66739;SDS011;53653;52.188;8.602;2022-08-27T11:12:54;11.27;;;3.75;;
66739;SDS011;53653;52.188;8.602;2022-08-27T11:15:32;11.65;;;3.75;;
66739;SDS011;53653;52.188;8.602;2022-08-27T11:18:02;12.13;;;4.00;;
66739;SDS011;53653;52.188;8.602;2022-08-27T11:20:40;11.30;;;3.63;;
66739;SDS011;53653;52.188;8.602;2022-08-27T11:23:13;12.55;;;3.83;;
66739;SDS011;53653;52.188;8.602;2022-08-27T11:25:53;11.18;;;4.07;;
66739;SDS011;53653;52.188;8.602;2022-08-27T11:28:25;12.30;;;3.63;;
66739;SDS011;53653;52.188;8.602;2022-08-27T11:31:06;10.48;;;3.80;;
66739;SDS011;53653;52.188;8.602;2022-08-27T11:34:37;10.97;;;4.00;;
66739;SDS011;53653;52.188;8.602;2022-08-27T11:39:50;12.02;;;3.60;;
66739;SDS011;53653;52.188;8.602;2022-08-27T11:45:22;11.30;;;3.55;;
66739;SDS011;53653;52.188;8.602;2022-08-27T11:48:13;9.63;;;3.20;;
66739;SDS011;53653;52.188;8.602;2022-08-27T11:50:51;13.38;;;3.60;;
66739;SDS011;53653;52.188;8.602;2022-08-27T11:53:33;10.90;;;3.55;;
66739;SDS011;53653;52.188;8.602;2022-08-27T11:56:17;10.98;;;3.80;;
66739;SDS011;53653;52.188;8.602;2022-08-27T12:01:52;10.57;;;3.53;;
66739;SDS011;53653;52.188;8.602;2022-08-27T12:04:32;13.10;;;3.45;;
66739;SDS011;53653;52.188;8.602;2022-08-27T12:12:34;11.07;;;3.22;;
66739;SDS011;53653;52.188;8.602;2022-08-27T12:15:23;12.47;;;2.90;;
66739;SDS011;53653;52.188;8.602;2022-08-27T12:18:02;7.45;;;2.90;;
66739;SDS011;53653;52.188;8.602;2022-08-27T12:23:47;10.23;;;2.80;;
66739;SDS011;53653;52.188;8.602;2022-08-27T12:28:50;10.07;;;2.63;;
66739;SDS011;53653;52.188;8.602;2022-08-27T12:31:34;9.40;;;2.80;;
66739;SDS011;53653;52.188;8.602;2022-08-27T12:34:00;8.55;;;2.70;;
66739;SDS011;53653;52.188;8.602;2022-08-27T12:36:26;8.47;;;2.60;;
66739;SDS011;53653;52.188;8.602;2022-08-27T12:38:53;8.13;;;2.67;;
66739;SDS011;53653;52.188;8.602;2022-08-27T12:44:03;10.45;;;3.20;;
66739;SDS011;53653;52.188;8.602;2022-08-27T12:46:57;7.63;;;2.38;;
66739;SDS011;53653;52.188;8.602;2022-08-27T12:49:24;8.90;;;2.97;;
66739;SDS011;53653;52.188;8.602;2022-08-27T12:51:52;10.90;;;2.70;;
66739;SDS011;53653;52.188;8.602;2022-08-27T12:54:23;11.82;;;3.25;;
66739;SDS011;53653;52.188;8.602;2022-08-27T13:05:44;10.90;;;2.60;;
66739;SDS011;53653;52.188;8.602;2022-08-27T13:10:48;11.63;;;3.05;;
66739;SDS011;53653;52.188;8.602;2022-08-27T13:13:15;9.90;;;2.40;;
66739;SDS011;53653;52.188;8.602;2022-08-27T13:15:44;10.43;;;2.40;;
66739;SDS011;53653;52.188;8.602;2022-08-27T13:18:13;7.53;;;2.17;;
66739;SDS011;53653;52.188;8.602;2022-08-27T13:20:40;10.65;;;2.60;;
66739;SDS011;53653;52.188;8.602;2022-08-27T13:23:18;11.00;;;2.72;;
66739;SDS011;53653;52.188;8.602;2022-08-27T13:25:57;7.97;;;2.30;;
66739;SDS011;53653;52.188;8.602;2022-08-27T13:28:35;11.25;;;2.83;;
66739;SDS011;53653;52.188;8.602;2022-08-27T13:31:02;10.03;;;2.30;;
66739;SDS011;53653;52.188;8.602;2022-08-27T13:33:30;10.20;;;2.58;;
66739;SDS011;53653;52.188;8.602;2022-08-27T13:35:58;10.20;;;2.40;;
66739;SDS011;53653;52.188;8.602;2022-08-27T13:38:26;10.90;;;3.00;;
66739;SDS011;53653;52.188;8.602;2022-08-27T13:43:36;12.67;;;2.50;;
66739;SDS011;53653;52.188;8.602;2022-08-27T13:46:14;12.02;;;2.50;;
66739;SDS011;53653;52.188;8.602;2022-08-27T13:48:43;7.70;;;2.08;;
66739;SDS011;53653;52.188;8.602;2022-08-27T13:51:11;10.02;;;2.58;;
66739;SDS011;53653;52.188;8.602;2022-08-27T13:53:45;9.65;;;2.63;;
66739;SDS011;53653;52.188;8.602;2022-08-27T13:56:32;10.20;;;3.00;;
66739;SDS011;53653;52.188;8.602;2022-08-27T14:01:40;10.20;;;2.10;;
66739;SDS011;53653;52.188;8.602;2022-08-27T14:04:22;9.80;;;2.42;;
66739;SDS011;53653;52.188;8.602;2022-08-27T14:06:50;10.40;;;2.65;;
66739;SDS011;53653;52.188;8.602;2022-08-27T14:09:24;9.17;;;2.23;;
66739;SDS011;53653;52.188;8.602;2022-08-27T14:12:06;10.07;;;2.63;;
66739;SDS011;53653;52.188;8.602;2022-08-27T14:14:40;11.25;;;3.05;;
66739;SDS011;53653;52.188;8.602;2022-08-27T14:17:18;11.38;;;2.50;;
66739;SDS011;53653;52.188;8.602;2022-08-27T14:19:46;8.93;;;2.78;;
66739;SDS011;53653;52.188;8.602;2022-08-27T14:22:13;9.07;;;2.20;;
66739;SDS011;53653;52.188;8.602;2022-08-27T14:24:39;9.40;;;2.20;;
66739;SDS011;53653;52.188;8.602;2022-08-27T14:27:07;10.97;;;2.20;;
66739;SDS011;53653;52.188;8.602;2022-08-27T14:29:34;9.80;;;2.10;;
66739;SDS011;53653;52.188;8.602;2022-08-27T14:32:00;11.37;;;2.47;;
66739;SDS011;53653;52.188;8.602;2022-08-27T14:34:25;11.15;;;2.05;;
66739;SDS011;53653;52.188;8.602;2022-08-27T14:36:51;10.43;;;2.00;;
66739;SDS011;53653;52.188;8.602;2022-08-27T14:39:16;14.20;;;2.63;;
66739;SDS011;53653;52.188;8.602;2022-08-27T14:41:42;14.07;;;2.63;;
66739;SDS011;53653;52.188;8.602;2022-08-27T14:44:07;12.20;;;2.03;;
66739;SDS011;53653;52.188;8.602;2022-08-27T14:46:33;11.80;;;2.50;;
66739;SDS011;53653;52.188;8.602;2022-08-27T14:49:00;10.30;;;2.63;;
66739;SDS011;53653;52.188;8.602;2022-08-27T14:51:31;10.65;;;1.83;;
66739;SDS011;53653;52.188;8.602;2022-08-27T14:53:59;13.02;;;2.40;;
66739;SDS011;53653;52.188;8.602;2022-08-27T14:56:25;9.80;;;2.27;;
66739;SDS011;53653;52.188;8.602;2022-08-27T14:58:51;8.70;;;2.13;;
66739;SDS011;53653;52.188;8.602;2022-08-27T15:01:17;9.48;;;2.50;;
66739;SDS011;53653;52.188;8.602;2022-08-27T15:03:47;12.10;;;2.40;;
66739;SDS011;53653;52.188;8.602;2022-08-27T15:06:15;8.85;;;2.17;;
66739;SDS011;53653;52.188;8.602;2022-08-27T15:08:42;7.72;;;2.28;;
66739;SDS011;53653;52.188;8.602;2022-08-27T15:11:11;8.50;;;2.13;;
66739;SDS011;53653;52.188;8.602;2022-08-27T15:13:40;10.25;;;2.40;;
66739;SDS011;53653;52.188;8.602;2022-08-27T15:16:06;8.50;;;2.20;;
66739;SDS011;53653;52.188;8.602;2022-08-27T15:18:31;10.77;;;2.30;;
66739;SDS011;53653;52.188;8.602;2022-08-27T15:20:57;10.02;;;2.40;;
66739;SDS011;53653;52.188;8.602;2022-08-27T15:23:23;12.00;;;2.80;;
66739;SDS011;53653;52.188;8.602;2022-08-27T15:25:49;11.20;;;2.38;;
66739;SDS011;53653;52.188;8.602;2022-08-27T15:28:14;8.93;;;2.07;;
66739;SDS011;53653;52.188;8.602;2022-08-27T15:30:40;9.40;;;2.33;;
66739;SDS011;53653;52.188;8.602;2022-08-27T15:33:06;8.27;;;2.10;;
66739;SDS011;53653;52.188;8.602;2022-08-27T15:35:32;8.00;;;2.15;;
66739;SDS011;53653;52.188;8.602;2022-08-27T15:37:58;7.30;;;2.08;;
66739;SDS011;53653;52.188;8.602;2022-08-27T15:40:24;10.77;;;2.77;;
66739;SDS011;53653;52.188;8.602;2022-08-27T15:42:53;9.40;;;2.35;;
66739;SDS011;53653;52.188;8.602;2022-08-27T15:45:22;9.43;;;2.42;;
66739;SDS011;53653;52.188;8.602;2022-08-27T15:47:48;11.83;;;2.30;;
66739;SDS011;53653;52.188;8.602;2022-08-27T15:50:14;13.32;;;2.42;;
66739;SDS011;53653;52.188;8.602;2022-08-27T15:52:40;7.33;;;2.00;;
66739;SDS011;53653;52.188;8.602;2022-08-27T15:55:06;7.93;;;2.25;;
66739;SDS011;53653;52.188;8.602;2022-08-27T15:57:38;9.45;;;2.00;;
66739;SDS011;53653;52.188;8.602;2022-08-27T16:00:04;9.83;;;2.47;;
66739;SDS011;53653;52.188;8.602;2022-08-27T16:02:30;6.82;;;2.25;;
66739;SDS011;53653;52.188;8.602;2022-08-27T16:04:55;10.17;;;2.43;;
66739;SDS011;53653;52.188;8.602;2022-08-27T16:07:21;9.03;;;2.40;;
66739;SDS011;53653;52.188;8.602;2022-08-27T16:09:46;13.57;;;2.15;;
66739;SDS011;53653;52.188;8.602;2022-08-27T16:12:12;9.60;;;2.10;;
66739;SDS011;53653;52.188;8.602;2022-08-27T16:14:39;10.85;;;1.95;;
66739;SDS011;53653;52.188;8.602;2022-08-27T16:17:04;9.15;;;2.00;;